Time;durP1;ratioP1;P1;durP2;ratioP2;P2;SDS_P1;SDS_P2;PMS_P1;PMS_P2;Temp;Humidity;BMP_temperature;BMP_pressure;BME280_temperature;BME280_humidity;BME280_pressure;Samples;Min_cycle;Max_cycle;Signal;HPM_P1;HPM_P2
2021/09/05 00:00:46;;;;;;;20.37;18.37;;;14.00;99.90;;;;;;4451173;32;20215;-65
2021/09/05 00:03:13;;;;;;;21.60;19.00;;;14.00;99.90;;;;;;4451895;32;20146;-64
2021/09/05 00:05:41;;;;;;;20.47;18.43;;;14.00;99.90;;;;;;4445224;32;20206;-64
2021/09/05 00:08:10;;;;;;;19.23;17.27;;;13.90;99.90;;;;;;4437759;32;20144;-64
2021/09/05 00:10:36;;;;;;;19.67;17.57;;;13.90;99.90;;;;;;4443781;32;20574;-65
2021/09/05 00:13:06;;;;;;;20.00;18.03;;;13.90;99.90;;;;;;4451449;32;20207;-65
2021/09/05 00:15:33;;;;;;;21.47;18.00;;;13.80;99.90;;;;;;4451617;32;20245;-65
2021/09/05 00:18:00;;;;;;;22.33;18.23;;;13.80;99.90;;;;;;4452339;32;20178;-64
2021/09/05 00:20:28;;;;;;;22.20;20.20;;;13.80;99.90;;;;;;4452865;32;20162;-65
2021/09/05 00:22:57;;;;;;;19.93;17.80;;;13.80;99.90;;;;;;4451729;32;20212;-67
2021/09/05 00:25:23;;;;;;;21.00;18.87;;;13.70;99.90;;;;;;4436152;32;20197;-63
2021/09/05 00:27:50;;;;;;;21.87;19.87;;;13.70;99.90;;;;;;4436576;32;20862;-64
2021/09/05 00:30:17;;;;;;;19.67;17.77;;;13.70;99.90;;;;;;4436520;32;20176;-65
2021/09/05 00:32:44;;;;;;;21.63;19.47;;;13.70;99.90;;;;;;4435763;32;20155;-65
2021/09/05 00:35:12;;;;;;;21.77;19.57;;;13.70;99.90;;;;;;4448209;32;20230;-67
2021/09/05 00:37:39;;;;;;;23.90;21.40;;;13.60;99.90;;;;;;4451096;32;20289;-64
2021/09/05 00:40:08;;;;;;;24.60;20.53;;;13.60;99.90;;;;;;4436829;32;20197;-63
2021/09/05 00:42:35;;;;;;;21.53;19.53;;;13.50;99.90;;;;;;4435657;32;20453;-66
2021/09/05 00:45:02;;;;;;;21.70;19.60;;;13.50;99.90;;;;;;4448198;32;20609;-65
2021/09/05 00:47:29;;;;;;;22.83;20.63;;;13.50;99.90;;;;;;4451038;32;20203;-64
2021/09/05 00:49:58;;;;;;;23.47;21.20;;;13.50;99.90;;;;;;4438532;32;20163;-64
2021/09/05 00:52:28;;;;;;;23.60;21.53;;;13.50;99.90;;;;;;4435454;32;20159;-64
2021/09/05 00:54:55;;;;;;;25.40;20.77;;;13.50;99.90;;;;;;4446029;32;20161;-65
2021/09/05 00:57:24;;;;;;;22.70;20.00;;;13.50;99.90;;;;;;4444970;32;20152;-64
2021/09/05 00:59:52;;;;;;;24.50;22.17;;;13.50;99.90;;;;;;4438611;32;20213;-65
2021/09/05 01:02:19;;;;;;;25.37;22.00;;;13.40;99.90;;;;;;4438212;32;20201;-64
2021/09/05 01:04:47;;;;;;;24.47;22.27;;;13.40;99.90;;;;;;4438303;32;20166;-64
2021/09/05 01:07:15;;;;;;;22.23;19.93;;;13.40;99.90;;;;;;4442383;32;20555;-66
2021/09/05 01:09:42;;;;;;;22.73;20.57;;;13.40;99.90;;;;;;4453694;32;20576;-65
2021/09/05 01:12:10;;;;;;;22.93;20.53;;;13.40;99.90;;;;;;4453001;32;20172;-64
2021/09/05 01:14:41;;;;;;;22.90;20.60;;;13.30;99.90;;;;;;4453510;32;20172;-65
2021/09/05 01:17:11;;;;;;;22.90;20.47;;;13.30;99.90;;;;;;4452186;32;20173;-64
2021/09/05 01:19:38;;;;;;;24.23;21.80;;;13.20;99.90;;;;;;4439909;32;20148;-63
2021/09/05 01:22:05;;;;;;;25.33;21.23;;;13.20;99.90;;;;;;4438895;32;20177;-68
2021/09/05 01:24:32;;;;;;;22.40;20.20;;;13.20;99.90;;;;;;4452322;32;20218;-63
2021/09/05 01:27:00;;;;;;;24.93;21.80;;;13.10;99.90;;;;;;4453859;32;20196;-63
2021/09/05 01:29:30;;;;;;;21.67;19.50;;;13.10;99.90;;;;;;4437997;32;20211;-64
2021/09/05 01:31:58;;;;;;;26.03;22.60;;;13.00;99.90;;;;;;4438409;32;20514;-65
2021/09/05 01:34:26;;;;;;;23.03;21.03;;;13.00;99.90;;;;;;4453247;32;20540;-67
2021/09/05 01:36:55;;;;;;;22.93;19.17;;;13.00;99.90;;;;;;4451428;32;20186;-65
2021/09/05 01:39:23;;;;;;;25.27;21.40;;;13.00;99.90;;;;;;4453380;32;20148;-65
2021/09/05 01:41:50;;;;;;;24.67;22.23;;;13.00;99.90;;;;;;4442423;32;20166;-65
2021/09/05 01:44:21;;;;;;;24.10;21.70;;;12.90;99.90;;;;;;4438010;32;20167;-65
2021/09/05 01:46:47;;;;;;;23.83;21.03;;;12.90;99.90;;;;;;4440440;32;20178;-66
2021/09/05 01:49:14;;;;;;;23.10;20.77;;;12.80;99.90;;;;;;4442138;32;20173;-66
2021/09/05 01:51:41;;;;;;;26.63;22.97;;;12.90;99.90;;;;;;4452818;32;20154;-67
2021/09/05 01:54:08;;;;;;;24.77;22.27;;;12.80;99.90;;;;;;4447332;32;20154;-65
2021/09/05 01:56:38;;;;;;;23.07;20.60;;;12.80;99.90;;;;;;4438593;32;20144;-66
2021/09/05 01:59:06;;;;;;;23.20;20.70;;;12.80;99.90;;;;;;4440639;32;20189;-66
2021/09/05 02:01:34;;;;;;;24.43;21.90;;;12.70;99.90;;;;;;4453840;32;20146;-65
2021/09/05 02:04:04;;;;;;;24.43;21.93;;;12.70;99.90;;;;;;4450302;32;20150;-65
2021/09/05 02:06:34;;;;;;;23.83;21.53;;;12.70;99.90;;;;;;4438360;32;20174;-65
2021/09/05 02:09:01;;;;;;;24.07;21.87;;;12.80;99.90;;;;;;4437727;32;20170;-65
2021/09/05 02:11:31;;;;;;;22.77;20.37;;;12.70;99.90;;;;;;4437420;32;20147;-66
2021/09/05 02:14:00;;;;;;;27.53;24.67;;;12.70;99.90;;;;;;4450897;32;20185;-65
2021/09/05 02:16:27;;;;;;;22.53;20.20;;;12.70;99.90;;;;;;4452769;32;20159;-65
2021/09/05 02:18:55;;;;;;;26.60;22.33;;;12.70;99.90;;;;;;4447132;32;20170;-65
2021/09/05 02:21:22;;;;;;;23.77;21.57;;;12.70;99.90;;;;;;4451974;32;20168;-65
2021/09/05 02:23:49;;;;;;;28.50;25.70;;;12.70;99.90;;;;;;4452956;32;20163;-65
2021/09/05 02:26:16;;;;;;;23.53;21.20;;;12.60;99.90;;;;;;4451070;32;20156;-65
2021/09/05 02:28:43;;;;;;;23.30;20.93;;;12.60;99.90;;;;;;4453445;32;20165;-65
2021/09/05 02:31:10;;;;;;;26.00;22.63;;;12.60;99.90;;;;;;4447946;32;20506;-64
2021/09/05 02:33:37;;;;;;;23.53;21.13;;;12.60;99.90;;;;;;4437442;32;20190;-65
2021/09/05 02:36:05;;;;;;;25.43;23.00;;;12.60;99.90;;;;;;4441895;32;20598;-67
2021/09/05 02:38:32;;;;;;;27.57;21.60;;;12.60;99.90;;;;;;4452410;32;20195;-65
2021/09/05 02:41:00;;;;;;;22.53;20.17;;;12.60;99.90;;;;;;4445328;32;20166;-64
2021/09/05 02:43:30;;;;;;;25.17;22.63;;;12.60;99.90;;;;;;4437117;32;20164;-65
2021/09/05 02:46:00;;;;;;;24.10;21.77;;;12.60;99.90;;;;;;4440388;32;20174;-67
2021/09/05 02:48:30;;;;;;;26.27;23.60;;;12.60;99.90;;;;;;4452517;32;20159;-65
2021/09/05 02:50:59;;;;;;;23.77;21.37;;;12.60;99.90;;;;;;4446090;32;20235;-65
2021/09/05 02:53:28;;;;;;;23.13;20.70;;;12.50;99.90;;;;;;4436555;32;20171;-65
2021/09/05 02:55:54;;;;;;;25.23;22.57;;;12.50;99.90;;;;;;4439233;32;20583;-68
2021/09/05 02:58:24;;;;;;;23.23;20.83;;;12.50;99.90;;;;;;4436523;32;20162;-65
2021/09/05 03:00:51;;;;;;;24.83;22.23;;;12.50;99.90;;;;;;4441363;32;20617;-65
2021/09/05 03:03:18;;;;;;;23.30;21.00;;;12.50;99.90;;;;;;4442076;32;20203;-65
2021/09/05 03:05:45;;;;;;;23.60;21.07;;;12.40;99.90;;;;;;4437285;32;20151;-65
2021/09/05 03:08:12;;;;;;;23.83;21.37;;;12.40;99.90;;;;;;4444407;32;20166;-67
2021/09/05 03:10:40;;;;;;;24.20;21.73;;;12.40;99.90;;;;;;4449603;32;20154;-67
2021/09/05 03:13:07;;;;;;;23.83;21.40;;;12.40;99.90;;;;;;4437682;32;20162;-65
2021/09/05 03:15:34;;;;;;;26.00;23.23;;;12.30;99.90;;;;;;4437017;32;20166;-65
2021/09/05 03:18:00;;;;;;;25.30;22.60;;;12.30;99.90;;;;;;4438306;32;20254;-65
2021/09/05 03:20:27;;;;;;;26.30;23.37;;;12.30;99.90;;;;;;4447827;32;20590;-65
2021/09/05 03:22:54;;;;;;;22.63;20.43;;;12.30;99.90;;;;;;4438776;32;20186;-65
2021/09/05 03:25:24;;;;;;;25.23;21.67;;;12.30;99.90;;;;;;4437209;32;20158;-65
2021/09/05 03:27:52;;;;;;;24.73;22.13;;;12.30;99.90;;;;;;4436197;32;20203;-65
2021/09/05 03:30:22;;;;;;;26.60;23.77;;;12.20;99.90;;;;;;4438082;32;20158;-65
2021/09/05 03:32:49;;;;;;;26.43;23.83;;;12.30;99.90;;;;;;4436635;32;20167;-65
2021/09/05 03:35:16;;;;;;;24.77;22.23;;;12.20;99.90;;;;;;4437220;32;20178;-67
2021/09/05 03:37:43;;;;;;;25.17;22.70;;;12.20;99.90;;;;;;4436820;32;20534;-65
2021/09/05 03:40:11;;;;;;;24.60;21.93;;;12.20;99.90;;;;;;4443306;32;20202;-65
2021/09/05 03:42:38;;;;;;;25.40;22.87;;;12.20;99.90;;;;;;4451748;32;20158;-65
2021/09/05 03:45:10;;;;;;;23.97;21.40;;;12.20;99.90;;;;;;4445523;32;20174;-65
2021/09/05 03:47:37;;;;;;;27.17;24.33;;;12.20;99.90;;;;;;4435996;32;20165;-65
2021/09/05 03:50:07;;;;;;;26.57;23.67;;;12.20;99.90;;;;;;4441531;32;20308;-65
2021/09/05 03:52:34;;;;;;;23.93;21.43;;;12.10;99.90;;;;;;4446600;32;20155;-64
2021/09/05 03:55:01;;;;;;;23.07;20.10;;;12.10;99.90;;;;;;4447552;32;20600;-67
2021/09/05 03:57:28;;;;;;;25.93;22.80;;;12.10;99.90;;;;;;4451349;32;20155;-67
2021/09/05 03:59:55;;;;;;;29.63;24.67;;;12.00;99.90;;;;;;4448313;32;20177;-65
2021/09/05 04:02:23;;;;;;;22.47;19.60;;;12.10;99.90;;;;;;4436514;32;20162;-65
2021/09/05 04:04:50;;;;;;;24.30;21.63;;;12.00;99.90;;;;;;4436560;32;20164;-64
2021/09/05 04:07:20;;;;;;;24.53;22.03;;;11.90;99.90;;;;;;4446986;32;20151;-64
2021/09/05 04:12:33;;;;;;;27.30;23.50;;;11.90;99.90;;;;;;4438940;32;20203;-64
2021/09/05 04:15:01;;;;;;;27.67;23.73;;;11.80;99.90;;;;;;4451182;32;20162;-64
2021/09/05 04:17:29;;;;;;;27.20;24.40;;;11.80;99.90;;;;;;4448029;32;20156;-64
2021/09/05 04:19:58;;;;;;;25.57;22.90;;;11.90;99.90;;;;;;4435927;32;20167;-64
2021/09/05 04:22:25;;;;;;;25.53;23.07;;;11.80;99.90;;;;;;4436473;32;20174;-64
2021/09/05 04:24:51;;;;;;;28.30;23.07;;;11.80;99.90;;;;;;4435989;32;20162;-64
2021/09/05 04:27:19;;;;;;;26.60;22.07;;;11.80;99.90;;;;;;4437522;32;20155;-64
2021/09/05 04:29:46;;;;;;;27.53;24.00;;;11.80;99.90;;;;;;4436997;32;20170;-64
2021/09/05 04:32:12;;;;;;;26.40;23.70;;;11.80;99.90;;;;;;4435549;32;20147;-64
2021/09/05 04:34:41;;;;;;;23.90;21.47;;;11.70;99.90;;;;;;4440834;32;20155;-64
2021/09/05 04:37:09;;;;;;;27.03;23.73;;;11.70;99.90;;;;;;4443841;32;20162;-64
2021/09/05 04:39:36;;;;;;;25.77;22.93;;;11.70;99.90;;;;;;4438760;32;20143;-63
2021/09/05 04:42:03;;;;;;;24.40;21.03;;;11.70;99.90;;;;;;4439369;32;20169;-67
2021/09/05 04:44:30;;;;;;;27.77;23.40;;;11.70;99.90;;;;;;4438490;32;20198;-64
2021/09/05 04:46:56;;;;;;;29.30;22.50;;;11.70;99.90;;;;;;4445544;32;20154;-66
2021/09/05 04:49:30;;;;;;;26.27;23.10;;;11.60;99.90;;;;;;4437864;32;20605;-64
2021/09/05 04:51:59;;;;;;;28.00;25.00;;;11.70;99.90;;;;;;4433256;32;20171;-67
2021/09/05 04:54:25;;;;;;;27.10;24.37;;;11.70;99.90;;;;;;4435060;32;20267;-64
2021/09/05 04:56:52;;;;;;;27.43;24.57;;;11.60;99.90;;;;;;4433180;32;20292;-64
2021/09/05 05:02:51;;;;;;;28.07;22.77;;;11.70;99.90;;;;;;4447645;32;20207;-64
2021/09/05 05:05:18;;;;;;;24.33;21.83;;;11.70;99.90;;;;;;4450838;32;20184;-66
2021/09/05 05:07:46;;;;;;;26.23;23.70;;;11.60;99.90;;;;;;4438478;32;20155;-64
2021/09/05 05:10:13;;;;;;;27.40;24.60;;;11.50;99.90;;;;;;4444192;32;20199;-66
2021/09/05 05:12:43;;;;;;;29.47;26.40;;;11.60;99.90;;;;;;4453801;32;20143;-64
2021/09/05 05:15:10;;;;;;;27.30;24.50;;;11.60;99.90;;;;;;4445193;32;20173;-65
2021/09/05 05:17:38;;;;;;;23.73;21.43;;;11.70;99.90;;;;;;4438400;32;20593;-64
2021/09/05 05:20:06;;;;;;;28.07;22.93;;;11.70;99.90;;;;;;4443685;32;20197;-66
2021/09/05 05:22:36;;;;;;;24.77;22.37;;;11.70;99.90;;;;;;4453511;32;20171;-64
2021/09/05 05:25:05;;;;;;;24.83;22.23;;;11.70;99.90;;;;;;4452657;32;20205;-64
2021/09/05 05:27:32;;;;;;;23.30;20.80;;;11.70;99.90;;;;;;4453485;32;20147;-63
2021/09/05 05:29:59;;;;;;;25.57;22.87;;;11.70;99.90;;;;;;4448883;32;20566;-64
2021/09/05 05:32:26;;;;;;;25.63;22.93;;;11.70;99.90;;;;;;4437942;32;20589;-65
2021/09/05 05:34:53;;;;;;;26.73;23.93;;;11.80;99.90;;;;;;4440151;32;20494;-65
2021/09/05 05:37:23;;;;;;;24.83;22.03;;;11.80;99.90;;;;;;4437314;32;20583;-66
2021/09/05 05:39:50;;;;;;;25.40;22.70;;;11.80;99.90;;;;;;4440433;32;20206;-64
2021/09/05 05:42:18;;;;;;;25.20;22.50;;;11.80;99.90;;;;;;4451592;32;20155;-64
2021/09/05 05:44:47;;;;;;;26.57;22.67;;;11.90;99.90;;;;;;4448629;32;20174;-63
2021/09/05 05:47:14;;;;;;;26.00;23.40;;;11.90;99.90;;;;;;4446249;32;20637;-65
2021/09/05 05:49:46;;;;;;;28.53;24.60;;;11.90;99.90;;;;;;4441309;32;20177;-64
2021/09/05 05:52:13;;;;;;;25.97;23.20;;;11.90;99.90;;;;;;4454273;32;20211;-64
2021/09/05 05:54:41;;;;;;;26.93;24.13;;;12.00;99.90;;;;;;4451867;32;20540;-62
2021/09/05 05:57:08;;;;;;;26.83;23.57;;;12.10;99.90;;;;;;4451260;32;20586;-64
2021/09/05 05:59:36;;;;;;;24.93;22.63;;;12.10;99.90;;;;;;4453563;32;20490;-62
2021/09/05 06:02:03;;;;;;;26.13;23.43;;;12.10;99.90;;;;;;4441047;32;20210;-64
2021/09/05 06:04:30;;;;;;;27.17;24.30;;;12.20;99.90;;;;;;4438673;32;20228;-65
2021/09/05 06:07:00;;;;;;;26.70;24.07;;;12.30;99.90;;;;;;4444004;32;20158;-63
2021/09/05 06:09:30;;;;;;;25.83;21.43;;;12.30;99.90;;;;;;4444127;32;20185;-64
2021/09/05 06:11:57;;;;;;;25.77;22.87;;;12.40;99.90;;;;;;4451287;32;20163;-64
2021/09/05 06:14:24;;;;;;;24.73;21.30;;;12.40;99.90;;;;;;4442853;32;20155;-65
2021/09/05 06:16:52;;;;;;;23.20;20.83;;;12.40;99.90;;;;;;4445780;32;20159;-64
2021/09/05 06:19:21;;;;;;;26.30;23.73;;;12.50;99.90;;;;;;4443330;32;20511;-66
2021/09/05 06:21:47;;;;;;;24.60;21.70;;;12.60;99.90;;;;;;4443683;32;20159;-62
2021/09/05 06:24:14;;;;;;;25.33;22.53;;;12.70;99.90;;;;;;4442808;32;20155;-65
2021/09/05 06:26:41;;;;;;;26.93;21.93;;;12.80;99.90;;;;;;4443502;32;20197;-64
2021/09/05 06:29:11;;;;;;;25.03;22.43;;;12.80;99.90;;;;;;4444254;32;20601;-65
2021/09/05 06:31:39;;;;;;;24.43;20.40;;;12.90;99.90;;;;;;4443889;32;20159;-64
2021/09/05 06:34:07;;;;;;;23.93;21.73;;;13.00;99.90;;;;;;4445512;32;20523;-64
2021/09/05 06:36:34;;;;;;;26.10;23.50;;;13.10;99.90;;;;;;4445776;32;20155;-66
2021/09/05 06:39:01;;;;;;;23.40;19.33;;;13.10;99.90;;;;;;4440783;32;20151;-65
2021/09/05 06:41:29;;;;;;;24.97;20.57;;;13.20;99.90;;;;;;4446082;32;20177;-64
2021/09/05 06:43:58;;;;;;;23.60;21.33;;;13.30;99.90;;;;;;4443289;32;20151;-65
2021/09/05 06:46:25;;;;;;;22.77;20.43;;;13.40;99.90;;;;;;4445470;32;20578;-66
2021/09/05 06:48:53;;;;;;;24.10;21.70;;;13.50;99.90;;;;;;4442439;32;20166;-65
2021/09/05 06:51:21;;;;;;;25.27;22.60;;;13.60;99.90;;;;;;4444694;32;20170;-65
2021/09/05 06:53:51;;;;;;;22.07;19.97;;;13.70;99.90;;;;;;4445100;32;20164;-64
2021/09/05 06:56:19;;;;;;;25.60;20.83;;;13.70;99.90;;;;;;4446508;32;20182;-64
2021/09/05 06:58:46;;;;;;;24.10;19.97;;;13.80;99.90;;;;;;4440835;32;20175;-63
2021/09/05 07:01:13;;;;;;;23.47;21.43;;;13.90;99.90;;;;;;4440991;32;20210;-64
2021/09/05 07:03:40;;;;;;;20.97;17.97;;;14.00;99.90;;;;;;4437759;32;20159;-64
2021/09/05 07:06:09;;;;;;;22.03;19.73;;;14.10;99.90;;;;;;4444788;32;20169;-64
2021/09/05 07:08:37;;;;;;;21.83;19.57;;;14.20;99.90;;;;;;4444584;32;20252;-65
2021/09/05 07:11:06;;;;;;;23.90;19.23;;;14.30;99.90;;;;;;4442319;32;20159;-63
2021/09/05 07:13:33;;;;;;;23.43;19.20;;;14.40;99.90;;;;;;4438101;32;20171;-63
2021/09/05 07:16:34;;;;;;;20.87;17.27;;;14.50;99.90;;;;;;4442920;32;20505;-65
2021/09/05 07:19:11;;;;;;;20.10;17.90;;;14.60;99.90;;;;;;4442310;32;20553;-65
2021/09/05 07:21:38;;;;;;;22.20;19.83;;;14.70;99.90;;;;;;4445568;32;20608;-63
2021/09/05 07:24:06;;;;;;;20.23;18.40;;;14.80;99.90;;;;;;4436792;32;20558;-62
2021/09/05 07:26:34;;;;;;;19.70;17.70;;;14.90;99.90;;;;;;4438302;32;20221;-65
2021/09/05 07:29:01;;;;;;;24.57;18.80;;;15.00;99.90;;;;;;4447482;32;20174;-62
2021/09/05 07:31:28;;;;;;;21.20;19.27;;;15.10;99.90;;;;;;4443784;32;20174;-64
2021/09/05 07:33:55;;;;;;;19.53;17.57;;;15.20;99.90;;;;;;4436866;32;20223;-61
2021/09/05 07:36:22;;;;;;;19.27;16.73;;;15.40;99.90;;;;;;4443579;32;20227;-62
2021/09/05 07:38:49;;;;;;;19.23;16.80;;;15.50;99.90;;;;;;4448114;32;20150;-62
2021/09/05 07:41:20;;;;;;;20.03;17.60;;;15.70;99.90;;;;;;4446564;32;20632;-62
2021/09/05 07:43:47;;;;;;;20.73;18.60;;;15.90;99.90;;;;;;4440658;32;20159;-64
2021/09/05 07:46:14;;;;;;;20.63;18.47;;;16.20;99.90;;;;;;4441224;32;20273;-63
2021/09/05 07:48:40;;;;;;;18.93;16.90;;;16.50;99.90;;;;;;4436591;32;20210;-63
2021/09/05 07:51:07;;;;;;;19.70;17.60;;;17.10;99.90;;;;;;4441154;32;20193;-63
2021/09/05 07:53:34;;;;;;;15.57;13.37;;;17.60;99.90;;;;;;4442783;32;20183;-63
2021/09/05 07:56:01;;;;;;;18.30;15.60;;;18.10;99.90;;;;;;4438430;32;20159;-64
2021/09/05 07:58:29;;;;;;;16.67;14.77;;;18.70;99.90;;;;;;4445901;32;20211;-64
2021/09/05 08:00:57;;;;;;;14.87;13.30;;;19.40;99.90;;;;;;4444686;32;20228;-63
2021/09/05 08:03:23;;;;;;;17.60;12.53;;;21.10;99.90;;;;;;4437421;32;20265;-65
2021/09/05 08:05:50;;;;;;;12.77;10.47;;;25.00;98.20;;;;;;4438133;32;20177;-65
2021/09/05 08:08:18;;;;;;;12.40;10.77;;;29.80;90.60;;;;;;4445796;32;20154;-65
2021/09/05 08:10:44;;;;;;;13.82;9.15;;;34.00;72.90;;;;;;4447446;32;20158;-63
2021/09/05 08:13:11;;;;;;;12.90;8.80;;;37.20;59.00;;;;;;4447772;32;20178;-63
2021/09/05 08:15:42;;;;;;;11.00;8.45;;;39.70;51.70;;;;;;4447156;32;20222;-63
2021/09/05 08:18:09;;;;;;;10.32;7.60;;;41.40;46.40;;;;;;4450401;32;20616;-63
2021/09/05 08:20:37;;;;;;;11.73;10.52;;;42.20;43.60;;;;;;4445784;32;20264;-64
2021/09/05 08:23:05;;;;;;;10.80;9.90;;;43.10;41.70;;;;;;4444023;32;20195;-65
2021/09/05 08:25:32;;;;;;;12.65;11.50;;;43.80;40.40;;;;;;4443622;32;20208;-64
2021/09/05 08:27:58;;;;;;;12.40;9.95;;;43.90;39.80;;;;;;4444198;32;20302;-66
2021/09/05 08:30:25;;;;;;;14.57;13.48;;;44.90;39.00;;;;;;4443490;32;20293;-66
2021/09/05 08:32:53;;;;;;;18.02;16.67;;;45.30;38.00;;;;;;4440952;32;20261;-65
2021/09/05 08:35:23;;;;;;;15.18;13.82;;;44.90;36.90;;;;;;4442486;32;20148;-67
2021/09/05 08:37:49;;;;;;;14.63;13.25;;;45.00;37.30;;;;;;4443986;32;20182;-67
2021/09/05 08:40:17;;;;;;;13.75;12.18;;;45.80;37.40;;;;;;4443649;32;20189;-66
2021/09/05 08:42:45;;;;;;;12.82;11.57;;;46.40;36.30;;;;;;4440713;32;20190;-65
2021/09/05 08:45:15;;;;;;;11.18;9.70;;;46.90;35.00;;;;;;4443716;32;20155;-66
2021/09/05 08:47:43;;;;;;;10.98;9.32;;;47.20;34.90;;;;;;4436773;32;20543;-66
2021/09/05 08:50:12;;;;;;;10.18;9.18;;;46.80;35.40;;;;;;4442346;32;20169;-65
2021/09/05 08:52:39;;;;;;;14.07;9.57;;;46.70;35.80;;;;;;4444616;32;20590;-65
2021/09/05 08:55:07;;;;;;;13.05;11.88;;;45.90;35.80;;;;;;4444296;32;20214;-66
2021/09/05 08:57:34;;;;;;;15.80;14.13;;;41.50;36.90;;;;;;4443889;32;20261;-64
2021/09/05 09:00:01;;;;;;;12.82;9.38;;;35.50;40.30;;;;;;4439069;32;20165;-64
2021/09/05 09:02:53;;;;;;;12.52;11.48;;;31.40;45.70;;;;;;4440932;32;20661;-64
2021/09/05 09:05:38;;;;;;;10.65;8.32;;;28.70;49.80;;;;;;4439717;32;20249;-64
2021/09/05 09:08:06;;;;;;;11.68;8.00;;;26.50;52.90;;;;;;4444106;32;20189;-65
2021/09/05 09:10:34;;;;;;;10.27;7.93;;;25.30;56.70;;;;;;4444127;32;20179;-65
2021/09/05 09:13:01;;;;;;;8.98;7.75;;;24.30;59.50;;;;;;4440264;32;20226;-66
2021/09/05 09:15:30;;;;;;;10.63;8.05;;;23.50;62.90;;;;;;4440539;32;20162;-66
2021/09/05 09:17:59;;;;;;;10.57;8.67;;;23.00;67.80;;;;;;4440182;32;20174;-65
2021/09/05 09:20:36;;;;;;;10.77;8.40;;;22.70;72.40;;;;;;4441212;32;20185;-66
2021/09/05 09:23:09;;;;;;;10.97;8.37;;;22.40;76.90;;;;;;4447709;32;20209;-65
2021/09/05 09:25:36;;;;;;;10.40;7.33;;;22.10;81.10;;;;;;4443093;32;20147;-66
2021/09/05 09:28:24;;;;;;;10.37;7.83;;;21.80;84.30;;;;;;4447319;32;20154;-66
2021/09/05 09:30:52;;;;;;;12.13;8.67;;;21.70;88.20;;;;;;4442318;32;20221;-65
2021/09/05 09:33:23;;;;;;;12.43;8.37;;;21.60;90.50;;;;;;4443730;32;20159;-66
2021/09/05 09:35:54;;;;;;;12.60;8.93;;;21.40;92.00;;;;;;4444069;32;20250;-66
2021/09/05 09:38:21;;;;;;;15.27;9.30;;;21.40;92.20;;;;;;4445138;32;20285;-65
2021/09/05 09:40:49;;;;;;;12.67;8.67;;;21.40;92.70;;;;;;4444431;32;20151;-65
2021/09/05 09:43:20;;;;;;;10.73;8.30;;;21.30;93.80;;;;;;4443380;32;20155;-65
2021/09/05 09:45:48;;;;;;;11.87;7.60;;;21.40;94.40;;;;;;4443605;32;20163;-65
2021/09/05 09:48:27;;;;;;;9.87;6.93;;;21.40;94.60;;;;;;4443262;32;20166;-65
2021/09/05 09:51:01;;;;;;;9.17;7.70;;;21.40;95.20;;;;;;4440406;32;20225;-65
2021/09/05 09:53:29;;;;;;;9.03;7.50;;;21.50;95.60;;;;;;4447632;32;20194;-65
2021/09/05 09:55:58;;;;;;;12.33;8.40;;;21.60;94.80;;;;;;4442654;32;20687;-66
2021/09/05 09:58:25;;;;;;;13.03;7.10;;;21.60;94.80;;;;;;4442798;32;20254;-66
2021/09/05 10:00:54;;;;;;;9.73;6.90;;;21.70;95.70;;;;;;4440734;32;20178;-65
2021/09/05 10:03:22;;;;;;;11.67;7.90;;;21.80;95.20;;;;;;4441081;32;20150;-65
2021/09/05 10:05:49;;;;;;;8.73;7.00;;;21.90;95.10;;;;;;4442168;32;20166;-65
2021/09/05 10:08:19;;;;;;;13.77;7.90;;;21.80;95.30;;;;;;4442312;32;20173;-66
2021/09/05 10:10:48;;;;;;;11.43;8.60;;;21.90;94.80;;;;;;4441415;32;20178;-66
2021/09/05 10:13:15;;;;;;;12.33;8.70;;;21.90;94.40;;;;;;4439876;32;20217;-66
2021/09/05 10:15:43;;;;;;;12.27;8.20;;;21.70;94.50;;;;;;4441157;32;20242;-67
2021/09/05 10:18:12;;;;;;;11.43;8.60;;;21.80;95.50;;;;;;4442082;32;20178;-67
2021/09/05 10:20:39;;;;;;;9.47;8.47;;;21.90;95.20;;;;;;4440458;32;20158;-65
2021/09/05 10:23:11;;;;;;;11.67;8.80;;;21.90;94.70;;;;;;4439176;32;20491;-66
2021/09/05 10:25:39;;;;;;;10.80;8.47;;;21.90;94.80;;;;;;4440604;32;20150;-65
2021/09/05 10:28:06;;;;;;;12.10;8.17;;;21.90;94.70;;;;;;4440414;32;20176;-65
2021/09/05 10:30:36;;;;;;;10.67;7.57;;;22.00;94.80;;;;;;4440484;32;20170;-66
2021/09/05 10:33:03;;;;;;;10.40;7.23;;;22.10;95.20;;;;;;4437474;32;20212;-65
2021/09/05 10:35:32;;;;;;;9.27;8.17;;;22.10;94.90;;;;;;4441171;32;20193;-66
2021/09/05 10:38:32;;;;;;;8.43;7.53;;;22.10;94.20;;;;;;4438001;32;20224;-65
2021/09/05 10:41:04;;;;;;;9.27;7.53;;;22.00;93.80;;;;;;4437228;32;20147;-66
2021/09/05 10:43:54;;;;;;;10.13;8.60;;;21.90;94.20;;;;;;4437235;32;20591;-67
2021/09/05 10:46:23;;;;;;;9.70;7.33;;;22.00;94.20;;;;;;4437049;32;20147;-66
2021/09/05 10:48:55;;;;;;;9.63;7.47;;;22.10;94.40;;;;;;4447315;32;20174;-66
2021/09/05 10:51:24;;;;;;;8.73;7.70;;;22.30;94.20;;;;;;4450210;32;20169;-67
2021/09/05 10:53:53;;;;;;;9.27;8.30;;;22.40;93.50;;;;;;4436624;32;20166;-66
2021/09/05 10:56:23;;;;;;;9.77;7.23;;;22.30;92.50;;;;;;4436450;32;20528;-66
2021/09/05 10:58:54;;;;;;;9.10;7.33;;;22.20;92.90;;;;;;4436890;32;20170;-66
2021/09/05 11:01:30;;;;;;;10.67;8.97;;;22.10;92.90;;;;;;4436699;32;20207;-66
2021/09/05 11:04:25;;;;;;;10.00;7.93;;;22.10;93.00;;;;;;4439766;32;20163;-66
2021/09/05 11:06:55;;;;;;;9.47;7.37;;;22.10;91.90;;;;;;4402204;32;20194;-67
2021/09/05 11:10:02;;;;;;;8.57;7.43;;;22.00;91.80;;;;;;4398201;32;20206;-67
2021/09/05 11:12:41;;;;;;;9.77;7.63;;;22.10;92.20;;;;;;4328608;33;20240;-66
2021/09/05 11:15:17;;;;;;;9.70;8.23;;;22.10;92.50;;;;;;4324695;33;20262;-68
2021/09/05 11:18:01;;;;;;;8.97;8.07;;;22.20;92.60;;;;;;4332301;33;20204;-67
2021/09/05 11:20:44;;;;;;;9.43;7.43;;;22.20;92.10;;;;;;4332941;33;20196;-67
2021/09/05 11:23:11;;;;;;;9.67;8.20;;;22.30;93.20;;;;;;4334358;33;20659;-67
2021/09/05 11:25:44;;;;;;;7.57;6.77;;;22.40;91.70;;;;;;4333772;33;20630;-66
2021/09/05 11:28:15;;;;;;;9.07;7.37;;;22.40;92.00;;;;;;4336753;33;20204;-66
2021/09/05 11:30:48;;;;;;;7.87;6.87;;;22.40;92.40;;;;;;4337565;33;20236;-65
2021/09/05 11:33:15;;;;;;;9.13;7.12;;;22.50;92.80;;;;;;4334566;33;20168;-65
2021/09/05 11:35:43;;;;;;;9.33;7.60;;;22.60;93.10;;;;;;4334067;33;20196;-65
2021/09/05 11:38:11;;;;;;;9.57;7.90;;;22.60;92.30;;;;;;4331372;33;20339;-65
2021/09/05 11:40:42;;;;;;;10.63;8.13;;;22.70;92.30;;;;;;4334840;33;20194;-65
2021/09/05 11:43:09;;;;;;;10.53;8.17;;;22.70;92.60;;;;;;4393438;32;20189;-66
2021/09/05 11:45:39;;;;;;;9.20;7.77;;;22.70;92.30;;;;;;4440998;32;20205;-67
2021/09/05 11:48:09;;;;;;;7.93;7.13;;;22.80;92.30;;;;;;4438670;32;20159;-65
2021/09/05 11:50:40;;;;;;;8.57;7.37;;;22.80;92.40;;;;;;4358665;32;2423574;-66
2021/09/05 11:53:08;;;;;;;12.65;8.27;;;23.00;92.20;;;;;;4428767;32;20219;-67
2021/09/05 11:55:35;;;;;;;8.43;7.30;;;23.00;91.20;;;;;;4425404;32;20155;-66
2021/09/05 11:58:07;;;;;;;9.43;8.10;;;23.10;91.50;;;;;;4427137;32;20502;-65
2021/09/05 12:00:54;;;;;;;10.30;8.00;;;23.00;91.00;;;;;;4427027;32;20192;-66
2021/09/05 12:03:24;;;;;;;8.98;7.70;;;23.00;90.10;;;;;;4426031;32;20174;-66
2021/09/05 12:05:54;;;;;;;10.07;8.05;;;22.90;90.90;;;;;;4428377;32;20185;-65
2021/09/05 12:08:21;;;;;;;10.17;8.37;;;22.90;92.20;;;;;;4427035;32;20166;-65
2021/09/05 12:11:01;;;;;;;7.97;7.18;;;22.90;92.20;;;;;;4428918;32;20178;-66
2021/09/05 12:13:45;;;;;;;8.80;7.93;;;23.00;92.20;;;;;;4427905;32;20195;-65
2021/09/05 12:16:22;;;;;;;8.17;6.87;;;23.10;91.10;;;;;;4429662;32;20240;-65
2021/09/05 12:19:00;;;;;;;8.43;7.00;;;23.10;91.60;;;;;;4431610;32;20167;-65
2021/09/05 12:21:31;;;;;;;11.10;7.72;;;23.20;90.50;;;;;;4430955;32;20211;-66
2021/09/05 12:23:57;;;;;;;8.73;7.40;;;23.20;90.70;;;;;;4427480;32;20174;-66
2021/09/05 12:26:24;;;;;;;8.77;7.95;;;23.30;89.60;;;;;;4430051;32;20171;-65
2021/09/05 12:29:02;;;;;;;9.60;7.95;;;23.20;87.80;;;;;;4432768;32;20171;-65
2021/09/05 12:31:44;;;;;;;8.02;7.07;;;23.20;84.40;;;;;;4428555;32;20158;-65
2021/09/05 12:34:12;;;;;;;11.20;8.20;;;23.30;88.10;;;;;;4428852;32;20158;-66
2021/09/05 12:36:39;;;;;;;8.38;7.62;;;23.40;88.30;;;;;;4428781;32;20163;-66
2021/09/05 12:39:06;;;;;;;11.10;8.32;;;23.40;89.00;;;;;;4427806;32;20226;-66
2021/09/05 12:41:33;;;;;;;11.20;8.52;;;23.40;87.90;;;;;;4426254;32;20179;-66
2021/09/05 12:44:04;;;;;;;10.48;8.55;;;23.40;85.60;;;;;;4429558;32;20571;-66
2021/09/05 12:46:37;;;;;;;10.13;9.07;;;23.40;86.80;;;;;;4426790;32;20219;-66